sensor_id;sensor_type;location;lat;lon;timestamp;pressure;altitude;pressure_sealevel;temperature;humidity
25664;BME280;13522;50.018;20.014;2022-07-23T06:33:19;98743.05;;;26.39;74.99
25664;BME280;13522;50.018;20.014;2022-07-23T06:36:39;98741.58;;;26.65;73.23
25664;BME280;13522;50.018;20.014;2022-07-23T06:39:56;98733.19;;;26.83;73.77
25664;BME280;13522;50.018;20.014;2022-07-23T06:43:14;98733.98;;;27.17;71.39
25664;BME280;13522;50.018;20.014;2022-07-23T06:46:28;98726.69;;;27.39;71.05
25664;BME280;13522;50.018;20.014;2022-07-23T06:49:40;98730.88;;;27.68;69.12
25664;BME280;13522;50.018;20.014;2022-07-23T06:52:52;98718.88;;;27.91;69.18
25664;BME280;13522;50.018;20.014;2022-07-23T06:56:05;98719.61;;;28.35;67.44
25664;BME280;13522;50.018;20.014;2022-07-23T06:59:18;98724.21;;;28.87;63.84
25664;BME280;13522;50.018;20.014;2022-07-23T07:02:30;98721.81;;;29.38;62.76
25664;BME280;13522;50.018;20.014;2022-07-23T07:05:43;98718.77;;;29.81;61.41
25664;BME280;13522;50.018;20.014;2022-07-23T07:08:55;98710.43;;;30.38;60.13
25664;BME280;13522;50.018;20.014;2022-07-23T07:12:08;98703.85;;;30.94;59.66
25664;BME280;13522;50.018;20.014;2022-07-23T07:15:21;98706.00;;;31.27;58.13
25664;BME280;13522;50.018;20.014;2022-07-23T07:18:33;98707.06;;;31.46;56.97
25664;BME280;13522;50.018;20.014;2022-07-23T07:21:45;98705.33;;;31.66;58.21
25664;BME280;13522;50.018;20.014;2022-07-23T07:24:57;98704.74;;;31.74;57.72
25664;BME280;13522;50.018;20.014;2022-07-23T07:28:08;98707.44;;;31.89;55.06
25664;BME280;13522;50.018;20.014;2022-07-23T07:31:20;98706.77;;;32.12;55.72
25664;BME280;13522;50.018;20.014;2022-07-23T07:34:32;98700.09;;;32.23;54.94
25664;BME280;13522;50.018;20.014;2022-07-23T07:37:44;98687.86;;;32.44;53.58
25664;BME280;13522;50.018;20.014;2022-07-23T07:40:56;98685.52;;;32.66;53.95
25664;BME280;13522;50.018;20.014;2022-07-23T07:44:07;98691.17;;;32.46;54.74
25664;BME280;13522;50.018;20.014;2022-07-23T07:47:19;98673.82;;;32.79;51.75
25664;BME280;13522;50.018;20.014;2022-07-23T07:50:31;98680.34;;;33.17;51.81
25664;BME280;13522;50.018;20.014;2022-07-23T07:53:44;98684.34;;;33.30;53.51
25664;BME280;13522;50.018;20.014;2022-07-23T07:56:57;98684.27;;;33.35;50.95
25664;BME280;13522;50.018;20.014;2022-07-23T08:00:13;98682.14;;;33.55;50.73
25664;BME280;13522;50.018;20.014;2022-07-23T08:03:26;98688.97;;;33.58;50.44
25664;BME280;13522;50.018;20.014;2022-07-23T08:06:38;98685.69;;;33.79;50.48
25664;BME280;13522;50.018;20.014;2022-07-23T08:09:50;98687.57;;;34.21;50.17
25664;BME280;13522;50.018;20.014;2022-07-23T08:13:01;98693.17;;;34.16;51.75
25664;BME280;13522;50.018;20.014;2022-07-23T08:16:13;98695.17;;;33.45;50.51
25664;BME280;13522;50.018;20.014;2022-07-23T08:19:26;98699.81;;;33.25;51.45
25664;BME280;13522;50.018;20.014;2022-07-23T08:22:48;98698.41;;;33.52;52.05
25664;BME280;13522;50.018;20.014;2022-07-23T08:26:01;98699.50;;;33.98;51.75
25664;BME280;13522;50.018;20.014;2022-07-23T08:29:13;98704.96;;;34.03;51.12
25664;BME280;13522;50.018;20.014;2022-07-23T08:32:27;98711.50;;;33.65;52.22
25664;BME280;13522;50.018;20.014;2022-07-23T08:35:43;98703.62;;;34.56;50.68
25664;BME280;13522;50.018;20.014;2022-07-23T08:38:58;98693.34;;;34.75;49.16
25664;BME280;13522;50.018;20.014;2022-07-23T08:42:13;98696.73;;;34.72;49.43
25664;BME280;13522;50.018;20.014;2022-07-23T08:45:27;98697.31;;;34.69;50.25
25664;BME280;13522;50.018;20.014;2022-07-23T08:48:39;98686.27;;;34.69;48.45
25664;BME280;13522;50.018;20.014;2022-07-23T08:51:52;98685.66;;;35.05;48.50
25664;BME280;13522;50.018;20.014;2022-07-23T08:55:05;98674.50;;;34.96;48.52
25664;BME280;13522;50.018;20.014;2022-07-23T08:58:18;98673.89;;;34.67;46.22
25664;BME280;13522;50.018;20.014;2022-07-23T09:01:33;98666.58;;;35.22;48.60
25664;BME280;13522;50.018;20.014;2022-07-23T09:04:45;98654.91;;;35.52;47.33
25664;BME280;13522;50.018;20.014;2022-07-23T09:08:11;98646.53;;;35.57;47.32
25664;BME280;13522;50.018;20.014;2022-07-23T09:11:25;98638.56;;;35.55;48.79
25664;BME280;13522;50.018;20.014;2022-07-23T09:14:41;98639.33;;;35.83;45.73
25664;BME280;13522;50.018;20.014;2022-07-23T09:17:54;98638.89;;;36.03;44.37
25664;BME280;13522;50.018;20.014;2022-07-23T09:21:14;98646.19;;;35.72;44.75
25664;BME280;13522;50.018;20.014;2022-07-23T09:24:28;98642.63;;;35.71;44.59
25664;BME280;13522;50.018;20.014;2022-07-23T09:27:55;98638.63;;;36.13;44.11
25664;BME280;13522;50.018;20.014;2022-07-23T09:31:08;98646.91;;;36.49;43.55
25664;BME280;13522;50.018;20.014;2022-07-23T09:34:22;98650.81;;;36.48;41.84
25664;BME280;13522;50.018;20.014;2022-07-23T09:37:34;98648.48;;;36.86;43.07
25664;BME280;13522;50.018;20.014;2022-07-23T09:40:46;98653.87;;;36.91;42.26
25664;BME280;13522;50.018;20.014;2022-07-23T09:44:07;98652.15;;;37.03;41.63
25664;BME280;13522;50.018;20.014;2022-07-23T09:47:22;98633.95;;;36.58;42.60
25664;BME280;13522;50.018;20.014;2022-07-23T09:50:35;98631.77;;;36.46;43.98
25664;BME280;13522;50.018;20.014;2022-07-23T09:53:47;98620.97;;;36.67;43.84
25664;BME280;13522;50.018;20.014;2022-07-23T09:57:00;98617.46;;;36.53;40.36
25664;BME280;13522;50.018;20.014;2022-07-23T10:00:15;98612.92;;;37.10;39.65
25664;BME280;13522;50.018;20.014;2022-07-23T10:03:27;98614.70;;;37.62;38.73
25664;BME280;13522;50.018;20.014;2022-07-23T10:06:42;98608.83;;;37.55;38.21
25664;BME280;13522;50.018;20.014;2022-07-23T10:10:08;98606.63;;;38.08;39.57
25664;BME280;13522;50.018;20.014;2022-07-23T10:13:24;98599.46;;;38.25;39.67
25664;BME280;13522;50.018;20.014;2022-07-23T10:16:52;98596.34;;;38.00;36.79
25664;BME280;13522;50.018;20.014;2022-07-23T10:20:06;98595.65;;;37.69;37.36
25664;BME280;13522;50.018;20.014;2022-07-23T10:23:22;98596.59;;;37.48;38.35
25664;BME280;13522;50.018;20.014;2022-07-23T10:26:41;98600.63;;;37.33;37.33
25664;BME280;13522;50.018;20.014;2022-07-23T10:29:58;98596.04;;;36.89;35.58
25664;BME280;13522;50.018;20.014;2022-07-23T10:33:27;98596.00;;;37.20;34.82
25664;BME280;13522;50.018;20.014;2022-07-23T10:36:47;98600.02;;;37.05;36.71
25664;BME280;13522;50.018;20.014;2022-07-23T10:40:14;98596.83;;;37.77;35.58
25664;BME280;13522;50.018;20.014;2022-07-23T10:43:28;98593.40;;;37.88;33.86
25664;BME280;13522;50.018;20.014;2022-07-23T10:46:58;98595.52;;;38.08;33.96
25664;BME280;13522;50.018;20.014;2022-07-23T10:50:24;98591.92;;;37.99;32.29
25664;BME280;13522;50.018;20.014;2022-07-23T10:53:59;98579.61;;;37.41;36.71
25664;BME280;13522;50.018;20.014;2022-07-23T10:57:13;98583.06;;;37.07;35.47
25664;BME280;13522;50.018;20.014;2022-07-23T11:00:26;98578.59;;;36.89;36.42
25664;BME280;13522;50.018;20.014;2022-07-23T11:03:39;98575.25;;;37.00;38.51
25664;BME280;13522;50.018;20.014;2022-07-23T11:07:19;98573.77;;;37.03;35.97
25664;BME280;13522;50.018;20.014;2022-07-23T11:10:35;98569.26;;;37.15;38.61
25664;BME280;13522;50.018;20.014;2022-07-23T11:13:50;98565.29;;;36.99;37.71
25664;BME280;13522;50.018;20.014;2022-07-23T11:17:02;98564.81;;;36.67;39.64
25664;BME280;13522;50.018;20.014;2022-07-23T11:20:24;98549.17;;;37.01;39.39
25664;BME280;13522;50.018;20.014;2022-07-23T11:24:03;98553.55;;;36.94;36.62
25664;BME280;13522;50.018;20.014;2022-07-23T11:27:16;98550.22;;;37.31;36.25
25664;BME280;13522;50.018;20.014;2022-07-23T11:30:44;98550.77;;;37.50;36.60
25664;BME280;13522;50.018;20.014;2022-07-23T11:37:41;98542.78;;;37.49;32.12
25664;BME280;13522;50.018;20.014;2022-07-23T11:40:55;98540.22;;;37.95;32.68
25664;BME280;13522;50.018;20.014;2022-07-23T11:47:38;98531.20;;;37.72;33.70
25664;BME280;13522;50.018;20.014;2022-07-23T11:50:50;98523.08;;;37.84;34.80
25664;BME280;13522;50.018;20.014;2022-07-23T11:54:08;98519.47;;;38.27;34.76
25664;BME280;13522;50.018;20.014;2022-07-23T11:57:21;98516.38;;;37.94;34.58
25664;BME280;13522;50.018;20.014;2022-07-23T12:00:35;98516.03;;;37.70;35.07
25664;BME280;13522;50.018;20.014;2022-07-23T12:03:53;98503.95;;;38.17;35.61
25664;BME280;13522;50.018;20.014;2022-07-23T12:07:08;98505.80;;;37.79;35.00
25664;BME280;13522;50.018;20.014;2022-07-23T12:10:35;98497.77;;;37.34;32.81
25664;BME280;13522;50.018;20.014;2022-07-23T12:13:58;98492.57;;;37.42;33.81
25664;BME280;13522;50.018;20.014;2022-07-23T12:17:11;98493.70;;;37.75;34.57
25664;BME280;13522;50.018;20.014;2022-07-23T12:20:25;98487.80;;;38.10;33.10
25664;BME280;13522;50.018;20.014;2022-07-23T12:23:39;98484.74;;;37.78;33.27
25664;BME280;13522;50.018;20.014;2022-07-23T12:27:09;98476.91;;;37.97;33.26
25664;BME280;13522;50.018;20.014;2022-07-23T12:30:26;98465.92;;;38.26;33.15
25664;BME280;13522;50.018;20.014;2022-07-23T12:33:41;98469.17;;;38.28;32.96
25664;BME280;13522;50.018;20.014;2022-07-23T12:36:54;98471.59;;;38.38;33.25
25664;BME280;13522;50.018;20.014;2022-07-23T12:40:28;98469.90;;;37.65;32.67
25664;BME280;13522;50.018;20.014;2022-07-23T12:43:43;98468.10;;;37.69;33.09
25664;BME280;13522;50.018;20.014;2022-07-23T12:46:55;98458.48;;;37.75;34.37
25664;BME280;13522;50.018;20.014;2022-07-23T12:50:08;98453.75;;;37.33;33.35
25664;BME280;13522;50.018;20.014;2022-07-23T12:53:23;98452.95;;;37.50;33.74
25664;BME280;13522;50.018;20.014;2022-07-23T12:56:37;98447.41;;;37.50;32.80
25664;BME280;13522;50.018;20.014;2022-07-23T12:59:52;98448.05;;;37.55;32.50
25664;BME280;13522;50.018;20.014;2022-07-23T13:03:04;98446.71;;;37.27;35.03
25664;BME280;13522;50.018;20.014;2022-07-23T13:06:18;98432.19;;;36.96;33.22
25664;BME280;13522;50.018;20.014;2022-07-23T13:09:31;98434.52;;;37.45;33.86
25664;BME280;13522;50.018;20.014;2022-07-23T13:12:46;98430.94;;;37.53;33.58
25664;BME280;13522;50.018;20.014;2022-07-23T13:15:58;98421.78;;;37.10;34.30
25664;BME280;13522;50.018;20.014;2022-07-23T13:19:13;98410.88;;;37.39;33.30
25664;BME280;13522;50.018;20.014;2022-07-23T13:22:27;98416.06;;;36.98;33.98
25664;BME280;13522;50.018;20.014;2022-07-23T13:25:39;98420.61;;;36.94;34.26
25664;BME280;13522;50.018;20.014;2022-07-23T13:28:52;98415.59;;;37.30;33.92
25664;BME280;13522;50.018;20.014;2022-07-23T13:32:07;98417.41;;;37.43;33.78
25664;BME280;13522;50.018;20.014;2022-07-23T13:35:19;98409.09;;;37.34;33.65
25664;BME280;13522;50.018;20.014;2022-07-23T13:38:33;98405.14;;;37.18;34.06
25664;BME280;13522;50.018;20.014;2022-07-23T13:41:45;98402.22;;;37.23;34.76
25664;BME280;13522;50.018;20.014;2022-07-23T13:44:57;98399.78;;;37.13;35.04
25664;BME280;13522;50.018;20.014;2022-07-23T13:48:12;98385.77;;;37.10;35.56
25664;BME280;13522;50.018;20.014;2022-07-23T13:51:25;98395.55;;;37.16;34.59
25664;BME280;13522;50.018;20.014;2022-07-23T13:54:37;98399.09;;;36.91;35.68
25664;BME280;13522;50.018;20.014;2022-07-23T13:57:49;98388.80;;;36.74;35.90
25664;BME280;13522;50.018;20.014;2022-07-23T14:01:02;98386.46;;;36.59;35.20
25664;BME280;13522;50.018;20.014;2022-07-23T14:04:14;98382.50;;;36.43;35.66
25664;BME280;13522;50.018;20.014;2022-07-23T14:07:26;98386.02;;;36.26;37.41
25664;BME280;13522;50.018;20.014;2022-07-23T14:10:38;98381.05;;;36.06;38.42
25664;BME280;13522;50.018;20.014;2022-07-23T14:13:50;98366.03;;;35.46;37.66
25664;BME280;13522;50.018;20.014;2022-07-23T14:17:01;98364.67;;;34.99;38.75
25664;BME280;13522;50.018;20.014;2022-07-23T14:20:16;98360.63;;;34.69;39.81
25664;BME280;13522;50.018;20.014;2022-07-23T14:23:29;98346.97;;;34.51;39.98
25664;BME280;13522;50.018;20.014;2022-07-23T14:26:41;98340.03;;;34.26;40.33
25664;BME280;13522;50.018;20.014;2022-07-23T14:29:53;98335.63;;;34.12;42.83
25664;BME280;13522;50.018;20.014;2022-07-23T14:33:05;98338.82;;;34.05;42.88
25664;BME280;13522;50.018;20.014;2022-07-23T14:36:17;98330.80;;;33.90;44.73
25664;BME280;13522;50.018;20.014;2022-07-23T14:39:29;98322.20;;;33.64;42.46
25664;BME280;13522;50.018;20.014;2022-07-23T14:42:41;98333.19;;;33.51;42.91
25664;BME280;13522;50.018;20.014;2022-07-23T14:45:54;98341.25;;;33.28;42.75
25664;BME280;13522;50.018;20.014;2022-07-23T14:49:07;98377.30;;;33.13;43.02
25664;BME280;13522;50.018;20.014;2022-07-23T14:52:19;98391.02;;;32.95;42.86
25664;BME280;13522;50.018;20.014;2022-07-23T14:55:31;98401.43;;;32.79;43.67
25664;BME280;13522;50.018;20.014;2022-07-23T14:58:55;98400.08;;;32.77;43.41
25664;BME280;13522;50.018;20.014;2022-07-23T15:02:09;98391.22;;;32.61;43.43
25664;BME280;13522;50.018;20.014;2022-07-23T15:05:22;98375.97;;;32.50;43.72
25664;BME280;13522;50.018;20.014;2022-07-23T15:08:35;98394.63;;;32.53;44.58
25664;BME280;13522;50.018;20.014;2022-07-23T15:11:47;98480.06;;;32.33;43.96
25664;BME280;13522;50.018;20.014;2022-07-23T15:15:02;98489.31;;;30.97;48.56
25664;BME280;13522;50.018;20.014;2022-07-23T15:18:15;98496.39;;;29.84;50.87
25664;BME280;13522;50.018;20.014;2022-07-23T15:21:31;98560.05;;;27.24;78.28
25664;BME280;13522;50.018;20.014;2022-07-23T15:24:52;98525.31;;;26.00;85.12
25664;BME280;13522;50.018;20.014;2022-07-23T15:28:07;98531.67;;;24.64;89.77
25664;BME280;13522;50.018;20.014;2022-07-23T18:38:37;98798.93;;;23.50;100.00
25664;BME280;13522;50.018;20.014;2022-07-23T18:51:34;98772.77;;;22.94;100.00
25664;BME280;13522;50.018;20.014;2022-07-23T18:54:52;98763.33;;;22.79;100.00
25664;BME280;13522;50.018;20.014;2022-07-23T18:58:57;98773.78;;;22.75;100.00
25664;BME280;13522;50.018;20.014;2022-07-23T19:02:14;98762.99;;;22.69;100.00
25664;BME280;13522;50.018;20.014;2022-07-23T19:05:37;98773.32;;;22.78;100.00
25664;BME280;13522;50.018;20.014;2022-07-23T19:10:05;98779.03;;;22.95;100.00
25664;BME280;13522;50.018;20.014;2022-07-23T19:13:26;98763.70;;;22.82;100.00
25664;BME280;13522;50.018;20.014;2022-07-23T19:16:40;98779.08;;;22.88;100.00
25664;BME280;13522;50.018;20.014;2022-07-23T19:20:00;98772.48;;;23.02;100.00
25664;BME280;13522;50.018;20.014;2022-07-23T19:41:52;98738.11;;;23.03;100.00
25664;BME280;13522;50.018;20.014;2022-07-23T19:51:09;98745.91;;;22.93;100.00
25664;BME280;13522;50.018;20.014;2022-07-23T19:54:38;98751.15;;;22.88;100.00
25664;BME280;13522;50.018;20.014;2022-07-23T19:58:02;98751.61;;;22.85;100.00
25664;BME280;13522;50.018;20.014;2022-07-23T20:39:06;98783.39;;;22.40;100.00
25664;BME280;13522;50.018;20.014;2022-07-23T22:52:06;98820.19;;;22.10;100.00
25664;BME280;13522;50.018;20.014;2022-07-23T22:55:26;98826.22;;;22.12;100.00
25664;BME280;13522;50.018;20.014;2022-07-23T22:58:40;98825.38;;;22.11;100.00
25664;BME280;13522;50.018;20.014;2022-07-23T23:01:54;98827.86;;;22.13;100.00
25664;BME280;13522;50.018;20.014;2022-07-23T23:05:19;98823.92;;;22.09;100.00
25664;BME280;13522;50.018;20.014;2022-07-23T23:08:30;98822.06;;;22.09;100.00
25664;BME280;13522;50.018;20.014;2022-07-23T23:11:42;98822.70;;;22.05;100.00
25664;BME280;13522;50.018;20.014;2022-07-23T23:14:54;98829.19;;;21.97;100.00
25664;BME280;13522;50.018;20.014;2022-07-23T23:18:07;98827.11;;;21.93;100.00
25664;BME280;13522;50.018;20.014;2022-07-23T23:21:47;98822.15;;;21.90;100.00
25664;BME280;13522;50.018;20.014;2022-07-23T23:24:59;98822.78;;;21.85;100.00
25664;BME280;13522;50.018;20.014;2022-07-23T23:28:10;98823.45;;;21.81;100.00
25664;BME280;13522;50.018;20.014;2022-07-23T23:31:51;98832.99;;;21.77;100.00
25664;BME280;13522;50.018;20.014;2022-07-23T23:35:31;98835.09;;;21.68;100.00
25664;BME280;13522;50.018;20.014;2022-07-23T23:38:50;98828.22;;;21.72;100.00
25664;BME280;13522;50.018;20.014;2022-07-23T23:42:03;98837.39;;;21.65;100.00
25664;BME280;13522;50.018;20.014;2022-07-23T23:45:43;98839.48;;;21.63;100.00
25664;BME280;13522;50.018;20.014;2022-07-23T23:49:23;98840.73;;;21.53;100.00
25664;BME280;13522;50.018;20.014;2022-07-23T23:53:03;98845.55;;;21.45;100.00
25664;BME280;13522;50.018;20.014;2022-07-23T23:56:44;98845.95;;;21.35;100.00
25664;BME280;13522;50.018;20.014;2022-07-23T23:59:57;98853.03;;;21.36;100.00
